createdAt,value
2017-09-25T00:00:43.230Z,139.97
2017-09-25T00:05:45.781Z,162.10
2017-09-25T00:10:48.039Z,155.13
2017-09-25T00:15:50.215Z,149.90
2017-09-25T00:20:53.596Z,174.37
2017-09-25T00:25:56.721Z,171.60
2017-09-25T00:31:00.282Z,150.20
2017-09-25T00:36:03.044Z,147.03
2017-09-25T00:41:05.780Z,165.70
2017-09-25T00:46:09.293Z,162.83
2017-09-25T00:51:12.644Z,175.57
2017-09-25T00:56:16.052Z,177.07
2017-09-25T01:01:19.803Z,225.87
2017-09-25T01:06:27.168Z,226.00
2017-09-25T01:11:29.857Z,241.97
2017-09-25T01:16:33.213Z,220.93
2017-09-25T01:21:35.820Z,239.47
2017-09-25T01:26:38.511Z,211.53
2017-09-25T01:31:41.198Z,227.97
2017-09-25T01:36:43.825Z,194.73
2017-09-25T01:41:47.947Z,231.10
2017-09-25T01:46:49.876Z,219.87
2017-09-25T01:51:52.568Z,227.90
2017-09-25T01:56:54.919Z,237.27
2017-09-25T02:01:57.189Z,220.20
2017-09-25T02:06:59.794Z,209.97
2017-09-25T02:12:02.311Z,196.17
2017-09-25T02:17:05.031Z,183.67
2017-09-25T02:22:07.814Z,195.57
2017-09-25T02:27:10.342Z,201.97
2017-09-25T02:32:12.454Z,208.23
2017-09-25T02:37:14.534Z,206.60
2017-09-25T02:42:17.291Z,207.40
2017-09-25T02:47:21.409Z,217.93
2017-09-25T02:52:24.190Z,233.03
2017-09-25T02:57:26.763Z,215.00
2017-09-25T03:02:29.228Z,165.47
2017-09-25T03:07:31.833Z,212.10
2017-09-25T03:12:35.246Z,189.43
2017-09-25T03:17:37.686Z,208.60
2017-09-25T03:22:40.430Z,234.47
2017-09-25T03:27:43.151Z,222.10
2017-09-25T03:32:45.806Z,236.37
2017-09-25T03:37:48.403Z,221.80
2017-09-25T03:42:50.722Z,202.10
2017-09-25T03:47:52.793Z,214.33
2017-09-25T03:52:55.472Z,217.70
2017-09-25T03:57:58.027Z,198.70
2017-09-25T04:03:00.127Z,195.97
2017-09-25T04:08:02.707Z,187.87
2017-09-25T04:13:05.087Z,179.27
2017-09-25T04:18:08.644Z,151.40
2017-09-25T04:23:10.740Z,174.37
2017-09-25T04:28:13.192Z,166.87
2017-09-25T04:33:15.122Z,199.93
2017-09-25T04:38:17.696Z,181.53
2017-09-25T04:43:20.350Z,194.37
2017-09-25T04:48:23.841Z,160.67
2017-09-25T04:53:26.418Z,175.70
2017-09-25T04:58:28.801Z,202.97
2017-09-25T05:03:31.991Z,176.73
2017-09-25T05:08:34.450Z,200.43
2017-09-25T05:13:37.783Z,190.73
2017-09-25T05:18:40.329Z,168.37
2017-09-25T05:23:42.459Z,169.63
2017-09-25T05:28:45.012Z,164.43
2017-09-25T05:33:47.763Z,159.10
2017-09-25T05:38:50.984Z,166.33
2017-09-25T05:43:53.570Z,157.83
2017-09-25T05:48:56.071Z,160.10
2017-09-25T05:53:58.715Z,146.13
2017-09-25T05:59:01.872Z,175.17
2017-09-25T06:04:04.395Z,205.80
2017-09-25T06:09:07.096Z,182.93
2017-09-25T06:14:09.780Z,201.43
2017-09-25T06:19:13.293Z,301.13
2017-09-25T06:24:17.357Z,418.73
2017-09-25T06:29:19.968Z,397.07
2017-09-25T06:34:22.664Z,421.33
2017-09-25T06:39:26.047Z,438.63
2017-09-25T06:44:28.200Z,391.83
2017-09-25T06:49:30.843Z,383.70
2017-09-25T06:54:33.077Z,368.70
2017-09-25T06:59:35.704Z,290.23
2017-09-25T07:04:38.951Z,348.10
2017-09-25T07:09:41.619Z,222.73
2017-09-25T07:14:44.351Z,268.13
2017-09-25T07:19:46.492Z,167.43
2017-09-25T07:24:49.084Z,152.60
2017-09-25T07:29:52.685Z,134.80
2017-09-25T07:34:56.288Z,140.80
2017-09-25T07:39:59.610Z,121.50
2017-09-25T07:45:01.701Z,121.67
2017-09-25T07:50:04.090Z,132.70
2017-09-25T07:55:07.382Z,142.57
2017-09-25T08:00:10.420Z,149.97
2017-09-25T08:05:12.655Z,135.33
2017-09-25T08:10:14.961Z,137.70
2017-09-25T08:15:17.565Z,125.43
2017-09-25T08:20:19.987Z,122.17
2017-09-25T08:25:22.774Z,149.20
2017-09-25T08:30:25.202Z,124.40
2017-09-25T08:35:27.835Z,119.10
2017-09-25T08:40:30.423Z,111.63
2017-09-25T08:45:32.988Z,90.07
2017-09-25T08:50:35.569Z,92.40
2017-09-25T08:55:38.066Z,90.67
2017-09-25T09:00:40.716Z,89.30
2017-09-25T09:05:43.315Z,69.23
2017-09-25T09:10:46.932Z,70.03
2017-09-25T09:15:49.571Z,72.70
2017-09-25T09:20:55.054Z,75.40
2017-09-25T09:25:57.956Z,69.93
2017-09-25T09:31:01.514Z,72.73
2017-09-25T09:36:03.959Z,68.77
2017-09-25T09:41:06.578Z,66.10
2017-09-25T09:46:09.876Z,68.83
2017-09-25T09:51:12.222Z,63.73
2017-09-25T09:56:15.412Z,62.13
2017-09-25T10:01:18.582Z,58.40
2017-09-25T10:06:21.262Z,60.57
2017-09-25T10:11:23.903Z,58.30
2017-09-25T10:16:25.887Z,56.70
2017-09-25T10:21:35.067Z,56.30
2017-09-25T10:26:39.672Z,54.00
2017-09-25T10:31:42.863Z,55.43
2017-09-25T10:36:45.501Z,45.87
2017-09-25T10:41:48.588Z,48.73
2017-09-25T10:46:51.760Z,52.03
2017-09-25T10:51:56.439Z,45.30
2017-09-25T10:56:59.600Z,43.40
2017-09-25T11:02:02.609Z,42.60
2017-09-25T11:07:05.587Z,43.23
2017-09-25T11:12:08.518Z,41.10
2017-09-25T11:17:11.542Z,44.53
2017-09-25T11:22:14.890Z,35.40
2017-09-25T11:27:18.021Z,43.00
2017-09-25T11:32:20.970Z,41.03
2017-09-25T11:37:23.635Z,39.87
2017-09-25T11:42:26.333Z,40.90
2017-09-25T11:47:29.129Z,46.93
2017-09-25T11:52:31.520Z,51.50
2017-09-25T11:57:34.347Z,53.80
2017-09-25T12:02:36.349Z,54.63
2017-09-25T12:07:38.937Z,45.30
2017-09-25T12:12:42.523Z,48.90
2017-09-25T12:17:45.190Z,52.97
2017-09-25T12:22:48.273Z,54.63
2017-09-25T12:27:51.052Z,46.13
2017-09-25T12:32:53.602Z,46.87
2017-09-25T12:37:56.184Z,45.57
2017-09-25T12:42:58.775Z,53.07
2017-09-25T12:48:01.488Z,43.57
2017-09-25T12:53:04.124Z,47.50
2017-09-25T12:58:06.370Z,51.67
2017-09-25T13:03:09.099Z,49.60
2017-09-25T13:08:11.038Z,48.80
2017-09-25T13:13:13.248Z,50.63
2017-09-25T13:18:15.894Z,45.10
2017-09-25T13:23:18.487Z,43.63
2017-09-25T13:28:21.098Z,44.63
2017-09-25T13:33:24.141Z,39.00
2017-09-25T13:38:26.355Z,45.93
2017-09-25T13:43:28.563Z,24.43
2017-09-25T13:48:31.197Z,36.83
2017-09-25T13:53:33.399Z,51.47
2017-09-25T14:03:43.196Z,52.20
2017-09-25T14:08:45.919Z,60.03
2017-09-25T14:13:48.316Z,64.83
2017-09-25T14:18:50.429Z,56.33
2017-09-25T14:23:53.085Z,50.20
2017-09-25T14:28:55.763Z,56.33
2017-09-25T14:33:58.500Z,61.13
2017-09-25T14:39:01.165Z,55.07
2017-09-25T14:44:05.857Z,49.30
2017-09-25T14:49:08.512Z,67.87
2017-09-25T14:54:11.792Z,47.23
2017-09-25T14:59:15.882Z,44.00
2017-09-25T15:04:18.409Z,48.30
2017-09-25T15:15:02.422Z,46.47
2017-09-25T15:30:50.540Z,53.33
2017-09-25T15:36:05.751Z,61.10
2017-09-25T15:46:32.294Z,57.70
2017-09-25T15:51:38.009Z,61.43
2017-09-25T15:56:49.200Z,53.53
2017-09-25T16:02:00.346Z,47.73
2017-09-25T16:07:19.261Z,47.40
2017-09-25T16:12:29.994Z,51.77
2017-09-25T16:17:49.601Z,69.40
2017-09-25T16:22:59.385Z,61.77
2017-09-25T16:28:09.968Z,76.07
2017-09-25T16:33:16.153Z,73.80
2017-09-25T16:38:29.148Z,66.50
2017-09-25T16:43:42.771Z,69.13
2017-09-25T16:48:59.367Z,59.17
2017-09-25T16:54:18.139Z,74.50
2017-09-25T16:59:24.158Z,69.50
2017-09-25T17:04:28.504Z,56.83
2017-09-25T17:09:33.386Z,44.47
2017-09-25T17:14:38.937Z,58.37
2017-09-25T17:19:43.614Z,73.27
2017-09-25T17:24:51.255Z,71.90
2017-09-25T17:29:56.921Z,73.10
2017-09-25T17:35:02.611Z,83.33
2017-09-25T17:40:09.648Z,93.93
2017-09-25T17:45:15.697Z,83.60
2017-09-25T17:50:20.781Z,99.37
2017-09-25T17:55:25.917Z,89.13
2017-09-25T18:00:33.553Z,86.87
2017-09-25T18:05:39.441Z,100.00
2017-09-25T18:10:47.170Z,104.30
2017-09-25T18:15:54.951Z,104.50
2017-09-25T18:21:01.961Z,105.90
2017-09-25T18:26:07.195Z,114.77
2017-09-25T18:31:15.684Z,134.70
2017-09-25T18:36:23.935Z,127.50
2017-09-25T18:41:27.683Z,122.13
2017-09-25T18:46:31.085Z,141.00
2017-09-25T18:51:33.096Z,122.10
2017-09-25T18:56:35.420Z,138.63
2017-09-25T19:01:38.345Z,137.20
2017-09-25T19:06:42.111Z,133.67
2017-09-25T19:11:45.901Z,133.50
2017-09-25T19:16:48.413Z,126.13
2017-09-25T19:21:57.652Z,159.50
2017-09-25T19:27:05.413Z,119.37
2017-09-25T19:32:12.775Z,113.90
2017-09-25T19:37:16.268Z,95.57
2017-09-25T19:42:22.952Z,88.50
2017-09-25T19:47:28.993Z,71.37
2017-09-25T19:52:39.795Z,75.50
2017-09-25T20:03:29.351Z,68.17
2017-09-25T20:08:31.316Z,63.03
2017-09-25T20:13:45.426Z,67.23
2017-09-25T20:18:49.138Z,54.57
2017-09-25T20:23:51.416Z,62.40
2017-09-25T20:28:55.931Z,55.80
2017-09-25T20:34:02.175Z,58.63
2017-09-25T20:39:06.834Z,57.07
2017-09-25T20:44:11.807Z,66.87
2017-09-25T20:49:16.280Z,55.13
2017-09-25T20:54:21.778Z,64.47
2017-09-25T20:59:26.205Z,63.10
2017-09-25T21:04:31.290Z,75.30
2017-09-25T21:09:36.173Z,57.43
2017-09-25T21:14:40.771Z,64.13
2017-09-25T21:19:47.035Z,62.70
2017-09-25T21:24:51.669Z,66.47
2017-09-25T21:29:56.051Z,72.80
2017-09-25T21:35:01.298Z,75.60
2017-09-25T21:40:05.806Z,73.20
2017-09-25T21:45:10.219Z,64.90
2017-09-25T21:50:14.628Z,64.93
2017-09-25T21:55:19.273Z,69.97
2017-09-25T22:00:24.487Z,67.27
2017-09-25T22:05:28.834Z,74.00
2017-09-25T22:10:33.230Z,70.07
2017-09-25T22:15:37.698Z,72.10
2017-09-25T22:20:39.775Z,58.90
2017-09-25T22:25:41.748Z,64.20
2017-09-25T22:30:44.467Z,60.50
2017-09-25T22:35:46.764Z,65.40
2017-09-25T22:40:59.247Z,72.63
2017-09-25T22:46:02.016Z,76.07
2017-09-25T22:51:05.458Z,87.40
2017-09-25T22:56:07.872Z,91.93
2017-09-25T23:01:10.304Z,90.40
2017-09-25T23:06:12.796Z,88.50
2017-09-25T23:11:16.507Z,100.03
2017-09-25T23:16:19.121Z,91.53
2017-09-25T23:21:21.050Z,102.73
2017-09-25T23:26:23.275Z,95.60
2017-09-25T23:31:26.892Z,95.10
2017-09-25T23:36:29.004Z,97.20
2017-09-25T23:41:31.724Z,95.80
2017-09-25T23:46:35.095Z,107.87
2017-09-25T23:51:37.646Z,98.37
2017-09-25T23:56:39.606Z,95.70
